Terminal Aerodrome Forecast
Issued by NWS

Home | Current Version | Previous Version | Text Only | Print | Product List | Glossary On
Versions: 1 2 3 4 5 6 7 8 9 10 11 12
482
FTUS44 KLZK 251735
TAFLIT
TAF
KLIT 251735Z 2518/2618 19007KT P6SM SCT050 BKN150
     FM252100 23007KT P6SM VCSH SCT050 BKN150
     FM260300 33007KT P6SM VCSH BKN050 OVC100 PROB30 2606/2612 6SM
      -TSRA BKN035CB OVC080=

USA.gov is the U.S. government's official web portal to all federal, state and local government web resources and services.